sensor_id;sensor_type;location;lat;lon;timestamp;pressure;altitude;pressure_sealevel;temperature;humidity
70027;BME280;57506;50.092;15.804;2024-01-30T00:01:39;100994.94;;;-0.38;100.00
70027;BME280;57506;50.092;15.804;2024-01-30T00:04:04;100992.13;;;-0.34;100.00
70027;BME280;57506;50.092;15.804;2024-01-30T00:06:30;100956.25;;;-0.57;100.00
70027;BME280;57506;50.092;15.804;2024-01-30T00:08:56;100959.13;;;-0.62;100.00
70027;BME280;57506;50.092;15.804;2024-01-30T00:11:22;100984.97;;;-0.50;100.00
70027;BME280;57506;50.092;15.804;2024-01-30T00:13:53;100957.38;;;-0.46;100.00
70027;BME280;57506;50.092;15.804;2024-01-30T00:16:24;100975.03;;;-0.29;100.00
70027;BME280;57506;50.092;15.804;2024-01-30T00:18:50;100982.59;;;-0.21;100.00
70027;BME280;57506;50.092;15.804;2024-01-30T00:21:16;100971.44;;;-0.28;100.00
70027;BME280;57506;50.092;15.804;2024-01-30T00:23:42;100978.56;;;-0.13;100.00
70027;BME280;57506;50.092;15.804;2024-01-30T00:26:07;100964.34;;;-0.27;100.00
70027;BME280;57506;50.092;15.804;2024-01-30T00:28:33;100972.31;;;-0.27;100.00
70027;BME280;57506;50.092;15.804;2024-01-30T00:30:58;100967.72;;;-0.24;100.00
70027;BME280;57506;50.092;15.804;2024-01-30T00:33:24;100960.41;;;-0.36;100.00
70027;BME280;57506;50.092;15.804;2024-01-30T00:35:50;100980.59;;;-0.33;100.00
70027;BME280;57506;50.092;15.804;2024-01-30T00:38:15;100989.34;;;-0.49;100.00
70027;BME280;57506;50.092;15.804;2024-01-30T00:40:41;100982.88;;;-0.60;100.00
70027;BME280;57506;50.092;15.804;2024-01-30T00:43:07;100990.03;;;-0.62;100.00
70027;BME280;57506;50.092;15.804;2024-01-30T00:45:32;100970.44;;;-0.76;100.00
70027;BME280;57506;50.092;15.804;2024-01-30T00:47:58;100969.34;;;-0.89;100.00
70027;BME280;57506;50.092;15.804;2024-01-30T00:50:23;100987.78;;;-0.87;100.00
70027;BME280;57506;50.092;15.804;2024-01-30T00:52:49;100969.03;;;-1.00;100.00
70027;BME280;57506;50.092;15.804;2024-01-30T00:55:14;100967.78;;;-1.10;100.00
70027;BME280;57506;50.092;15.804;2024-01-30T00:57:40;100968.69;;;-1.11;100.00
70027;BME280;57506;50.092;15.804;2024-01-30T01:00:07;100979.47;;;-1.14;100.00
70027;BME280;57506;50.092;15.804;2024-01-30T01:02:37;100997.34;;;-1.19;100.00
70027;BME280;57506;50.092;15.804;2024-01-30T01:05:05;100998.34;;;-1.22;100.00
70027;BME280;57506;50.092;15.804;2024-01-30T01:07:30;100994.19;;;-1.27;100.00
70027;BME280;57506;50.092;15.804;2024-01-30T01:09:56;100985.09;;;-1.39;100.00
70027;BME280;57506;50.092;15.804;2024-01-30T01:12:21;100971.38;;;-1.47;100.00
70027;BME280;57506;50.092;15.804;2024-01-30T01:14:47;100987.59;;;-1.36;100.00
70027;BME280;57506;50.092;15.804;2024-01-30T01:17:12;100988.78;;;-1.43;100.00
70027;BME280;57506;50.092;15.804;2024-01-30T01:19:38;100980.59;;;-1.56;100.00
70027;BME280;57506;50.092;15.804;2024-01-30T01:22:03;100979.03;;;-1.60;100.00
70027;BME280;57506;50.092;15.804;2024-01-30T01:24:31;100990.66;;;-1.45;100.00
70027;BME280;57506;50.092;15.804;2024-01-30T01:26:58;100974.66;;;-1.61;100.00
70027;BME280;57506;50.092;15.804;2024-01-30T01:29:24;100981.06;;;-1.65;100.00
70027;BME280;57506;50.092;15.804;2024-01-30T01:31:56;100968.41;;;-1.77;100.00
70027;BME280;57506;50.092;15.804;2024-01-30T01:34:22;100991.13;;;-1.73;100.00
70027;BME280;57506;50.092;15.804;2024-01-30T01:36:49;100985.34;;;-1.81;100.00
70027;BME280;57506;50.092;15.804;2024-01-30T01:39:14;100984.69;;;-1.86;100.00
70027;BME280;57506;50.092;15.804;2024-01-30T01:41:41;100967.25;;;-2.09;100.00
70027;BME280;57506;50.092;15.804;2024-01-30T01:44:07;100940.06;;;-2.30;100.00
70027;BME280;57506;50.092;15.804;2024-01-30T01:46:33;100987.31;;;-2.05;100.00
70027;BME280;57506;50.092;15.804;2024-01-30T01:49:00;100977.25;;;-2.16;100.00
70027;BME280;57506;50.092;15.804;2024-01-30T01:51:29;100994.09;;;-2.18;100.00
70027;BME280;57506;50.092;15.804;2024-01-30T01:53:57;100974.66;;;-2.36;100.00
70027;BME280;57506;50.092;15.804;2024-01-30T01:56:24;100978.94;;;-2.33;100.00
70027;BME280;57506;50.092;15.804;2024-01-30T01:58:51;100992.09;;;-2.32;100.00
70027;BME280;57506;50.092;15.804;2024-01-30T02:01:20;100974.06;;;-2.42;100.00
70027;BME280;57506;50.092;15.804;2024-01-30T02:03:46;100980.56;;;-2.50;100.00
70027;BME280;57506;50.092;15.804;2024-01-30T02:06:13;100981.41;;;-2.49;100.00
70027;BME280;57506;50.092;15.804;2024-01-30T02:08:40;100977.72;;;-2.65;100.00
70027;BME280;57506;50.092;15.804;2024-01-30T02:11:05;100967.97;;;-2.63;100.00
70027;BME280;57506;50.092;15.804;2024-01-30T02:13:31;100965.38;;;-2.65;100.00
70027;BME280;57506;50.092;15.804;2024-01-30T02:15:57;100980.31;;;-2.64;100.00
70027;BME280;57506;50.092;15.804;2024-01-30T02:18:22;100983.72;;;-2.62;100.00
70027;BME280;57506;50.092;15.804;2024-01-30T02:20:48;100977.13;;;-2.72;100.00
70027;BME280;57506;50.092;15.804;2024-01-30T02:23:15;100953.72;;;-3.00;100.00
70027;BME280;57506;50.092;15.804;2024-01-30T02:25:42;100979.25;;;-2.80;100.00
70027;BME280;57506;50.092;15.804;2024-01-30T02:28:15;100959.78;;;-2.98;100.00
70027;BME280;57506;50.092;15.804;2024-01-30T02:30:44;100976.53;;;-2.99;100.00
70027;BME280;57506;50.092;15.804;2024-01-30T02:33:09;100957.84;;;-3.14;100.00
70027;BME280;57506;50.092;15.804;2024-01-30T02:35:35;100927.28;;;-3.40;100.00
70027;BME280;57506;50.092;15.804;2024-01-30T02:38:00;100970.53;;;-3.24;100.00
70027;BME280;57506;50.092;15.804;2024-01-30T02:40:26;100989.00;;;-3.24;100.00
70027;BME280;57506;50.092;15.804;2024-01-30T02:42:52;100971.72;;;-3.31;100.00
70027;BME280;57506;50.092;15.804;2024-01-30T02:45:17;100961.75;;;-3.45;100.00
70027;BME280;57506;50.092;15.804;2024-01-30T02:47:43;100972.81;;;-3.37;100.00
70027;BME280;57506;50.092;15.804;2024-01-30T02:50:09;100943.66;;;-3.54;100.00
70027;BME280;57506;50.092;15.804;2024-01-30T02:52:35;100959.66;;;-3.37;100.00
70027;BME280;57506;50.092;15.804;2024-01-30T02:55:01;100956.53;;;-3.46;100.00
70027;BME280;57506;50.092;15.804;2024-01-30T02:57:28;100972.94;;;-3.40;100.00
70027;BME280;57506;50.092;15.804;2024-01-30T02:59:53;100960.09;;;-3.47;100.00
70027;BME280;57506;50.092;15.804;2024-01-30T03:02:19;100969.66;;;-3.45;100.00
70027;BME280;57506;50.092;15.804;2024-01-30T03:04:45;100947.47;;;-3.61;100.00
70027;BME280;57506;50.092;15.804;2024-01-30T03:07:10;100963.75;;;-3.52;100.00
70027;BME280;57506;50.092;15.804;2024-01-30T03:09:37;100970.59;;;-3.46;100.00
70027;BME280;57506;50.092;15.804;2024-01-30T03:12:03;100953.63;;;-3.61;100.00
70027;BME280;57506;50.092;15.804;2024-01-30T03:14:31;100972.41;;;-3.48;100.00
70027;BME280;57506;50.092;15.804;2024-01-30T03:16:57;100962.31;;;-3.59;100.00
70027;BME280;57506;50.092;15.804;2024-01-30T03:19:23;100962.84;;;-3.50;100.00
70027;BME280;57506;50.092;15.804;2024-01-30T03:21:49;100940.84;;;-3.71;100.00
70027;BME280;57506;50.092;15.804;2024-01-30T03:24:19;100943.41;;;-3.70;100.00
70027;BME280;57506;50.092;15.804;2024-01-30T03:26:44;100950.19;;;-3.63;100.00
70027;BME280;57506;50.092;15.804;2024-01-30T03:29:10;100952.13;;;-3.68;100.00
70027;BME280;57506;50.092;15.804;2024-01-30T03:31:36;100944.78;;;-3.81;100.00
70027;BME280;57506;50.092;15.804;2024-01-30T03:34:02;100954.94;;;-3.72;100.00
70027;BME280;57506;50.092;15.804;2024-01-30T03:36:27;100917.22;;;-3.95;100.00
70027;BME280;57506;50.092;15.804;2024-01-30T03:38:53;100967.88;;;-3.66;100.00
70027;BME280;57506;50.092;15.804;2024-01-30T03:41:19;100915.38;;;-3.93;100.00
70027;BME280;57506;50.092;15.804;2024-01-30T03:43:45;100947.97;;;-3.73;100.00
70027;BME280;57506;50.092;15.804;2024-01-30T03:46:13;100964.63;;;-3.73;100.00
70027;BME280;57506;50.092;15.804;2024-01-30T03:48:39;100942.44;;;-3.89;100.00
70027;BME280;57506;50.092;15.804;2024-01-30T03:51:05;100952.13;;;-3.90;100.00
70027;BME280;57506;50.092;15.804;2024-01-30T03:53:30;100924.47;;;-4.01;100.00
70027;BME280;57506;50.092;15.804;2024-01-30T03:55:57;100965.72;;;-3.78;100.00
70027;BME280;57506;50.092;15.804;2024-01-30T03:58:22;100965.25;;;-3.66;100.00
70027;BME280;57506;50.092;15.804;2024-01-30T04:00:48;100959.53;;;-3.56;100.00
70027;BME280;57506;50.092;15.804;2024-01-30T04:03:14;100936.84;;;-3.38;100.00
70027;BME280;57506;50.092;15.804;2024-01-30T04:05:41;100954.81;;;-3.26;100.00
70027;BME280;57506;50.092;15.804;2024-01-30T04:08:07;100939.47;;;-3.38;100.00
70027;BME280;57506;50.092;15.804;2024-01-30T04:10:33;100944.28;;;-3.47;100.00
70027;BME280;57506;50.092;15.804;2024-01-30T04:12:58;100961.06;;;-3.50;100.00
70027;BME280;57506;50.092;15.804;2024-01-30T04:15:25;100951.09;;;-3.64;100.00
70027;BME280;57506;50.092;15.804;2024-01-30T04:17:50;100957.41;;;-3.68;100.00
70027;BME280;57506;50.092;15.804;2024-01-30T04:20:16;100938.25;;;-3.73;100.00
70027;BME280;57506;50.092;15.804;2024-01-30T04:22:46;100932.41;;;-3.79;100.00
70027;BME280;57506;50.092;15.804;2024-01-30T04:25:13;100923.75;;;-3.83;100.00
70027;BME280;57506;50.092;15.804;2024-01-30T04:27:38;100944.03;;;-3.63;100.00
70027;BME280;57506;50.092;15.804;2024-01-30T04:30:04;100950.78;;;-3.56;100.00
70027;BME280;57506;50.092;15.804;2024-01-30T04:32:30;100943.72;;;-3.56;100.00
70027;BME280;57506;50.092;15.804;2024-01-30T04:34:56;100949.78;;;-3.54;100.00
70027;BME280;57506;50.092;15.804;2024-01-30T04:37:21;100912.72;;;-3.71;100.00
70027;BME280;57506;50.092;15.804;2024-01-30T04:39:47;100936.22;;;-3.23;100.00
70027;BME280;57506;50.092;15.804;2024-01-30T04:42:12;100924.63;;;-3.19;100.00
70027;BME280;57506;50.092;15.804;2024-01-30T04:44:38;100914.47;;;-3.28;100.00
70027;BME280;57506;50.092;15.804;2024-01-30T04:47:04;100921.47;;;-3.27;100.00
70027;BME280;57506;50.092;15.804;2024-01-30T04:49:31;100918.28;;;-3.35;100.00
70027;BME280;57506;50.092;15.804;2024-01-30T04:51:57;100921.44;;;-3.47;100.00
70027;BME280;57506;50.092;15.804;2024-01-30T04:54:24;100922.72;;;-3.57;100.00
70027;BME280;57506;50.092;15.804;2024-01-30T04:56:49;100933.41;;;-3.60;100.00
70027;BME280;57506;50.092;15.804;2024-01-30T04:59:15;100940.66;;;-3.67;100.00
70027;BME280;57506;50.092;15.804;2024-01-30T05:01:40;100916.66;;;-3.81;100.00
70027;BME280;57506;50.092;15.804;2024-01-30T05:04:09;100898.16;;;-3.58;100.00
70027;BME280;57506;50.092;15.804;2024-01-30T05:06:35;100929.22;;;-3.44;100.00
70027;BME280;57506;50.092;15.804;2024-01-30T05:09:00;100925.22;;;-3.54;100.00
70027;BME280;57506;50.092;15.804;2024-01-30T05:11:26;100939.63;;;-3.63;100.00
70027;BME280;57506;50.092;15.804;2024-01-30T05:13:51;100933.00;;;-3.73;100.00
70027;BME280;57506;50.092;15.804;2024-01-30T05:16:17;100912.69;;;-3.91;100.00
70027;BME280;57506;50.092;15.804;2024-01-30T05:18:43;100916.94;;;-3.89;100.00
70027;BME280;57506;50.092;15.804;2024-01-30T05:21:08;100883.69;;;-4.13;100.00
70027;BME280;57506;50.092;15.804;2024-01-30T05:23:35;100921.72;;;-3.98;100.00
70027;BME280;57506;50.092;15.804;2024-01-30T05:26:00;100900.53;;;-4.17;100.00
70027;BME280;57506;50.092;15.804;2024-01-30T05:28:26;100912.88;;;-4.19;100.00
70027;BME280;57506;50.092;15.804;2024-01-30T05:30:52;100921.09;;;-4.27;100.00
70027;BME280;57506;50.092;15.804;2024-01-30T05:33:17;100924.78;;;-4.32;100.00
70027;BME280;57506;50.092;15.804;2024-01-30T05:35:43;100941.16;;;-4.24;100.00
70027;BME280;57506;50.092;15.804;2024-01-30T05:38:08;100928.19;;;-4.29;100.00
70027;BME280;57506;50.092;15.804;2024-01-30T05:40:34;100900.06;;;-4.51;100.00
70027;BME280;57506;50.092;15.804;2024-01-30T05:42:59;100921.66;;;-4.42;100.00
70027;BME280;57506;50.092;15.804;2024-01-30T05:45:26;100902.84;;;-4.54;100.00
70027;BME280;57506;50.092;15.804;2024-01-30T05:47:52;100927.78;;;-4.41;100.00
70027;BME280;57506;50.092;15.804;2024-01-30T05:50:19;100940.03;;;-4.40;100.00
70027;BME280;57506;50.092;15.804;2024-01-30T05:52:45;100931.66;;;-4.51;100.00
70027;BME280;57506;50.092;15.804;2024-01-30T05:55:11;100926.69;;;-4.59;100.00
70027;BME280;57506;50.092;15.804;2024-01-30T05:57:37;100948.13;;;-4.46;100.00
70027;BME280;57506;50.092;15.804;2024-01-30T06:00:04;100945.50;;;-4.46;100.00
70027;BME280;57506;50.092;15.804;2024-01-30T06:02:30;100929.25;;;-4.57;100.00
70027;BME280;57506;50.092;15.804;2024-01-30T06:04:55;100936.28;;;-4.58;100.00
70027;BME280;57506;50.092;15.804;2024-01-30T06:07:21;100915.41;;;-4.63;100.00
70027;BME280;57506;50.092;15.804;2024-01-30T06:09:47;100937.94;;;-4.32;100.00
70027;BME280;57506;50.092;15.804;2024-01-30T06:12:12;100947.69;;;-4.11;100.00
70027;BME280;57506;50.092;15.804;2024-01-30T06:14:38;100938.19;;;-4.15;100.00
70027;BME280;57506;50.092;15.804;2024-01-30T06:17:04;100954.66;;;-4.10;100.00
70027;BME280;57506;50.092;15.804;2024-01-30T06:19:30;100950.44;;;-4.14;100.00
70027;BME280;57506;50.092;15.804;2024-01-30T06:21:58;100925.66;;;-4.32;100.00
70027;BME280;57506;50.092;15.804;2024-01-30T06:24:24;100941.16;;;-4.24;100.00
70027;BME280;57506;50.092;15.804;2024-01-30T06:26:49;100935.28;;;-4.31;100.00
70027;BME280;57506;50.092;15.804;2024-01-30T06:29:15;100953.81;;;-4.10;100.00
70027;BME280;57506;50.092;15.804;2024-01-30T06:31:42;100948.06;;;-3.98;100.00
70027;BME280;57506;50.092;15.804;2024-01-30T06:34:08;100929.72;;;-3.78;100.00
70027;BME280;57506;50.092;15.804;2024-01-30T06:36:34;100941.09;;;-3.56;100.00
70027;BME280;57506;50.092;15.804;2024-01-30T06:39:01;100958.00;;;-3.39;100.00
70027;BME280;57506;50.092;15.804;2024-01-30T06:41:26;100953.47;;;-3.36;100.00
70027;BME280;57506;50.092;15.804;2024-01-30T06:43:52;100946.75;;;-3.43;100.00
70027;BME280;57506;50.092;15.804;2024-01-30T06:46:17;100905.66;;;-3.48;100.00
70027;BME280;57506;50.092;15.804;2024-01-30T06:48:43;100926.13;;;-3.33;100.00
70027;BME280;57506;50.092;15.804;2024-01-30T06:51:10;100931.38;;;-3.11;100.00
70027;BME280;57506;50.092;15.804;2024-01-30T06:53:36;100927.66;;;-2.67;100.00
70027;BME280;57506;50.092;15.804;2024-01-30T06:56:02;100944.00;;;-2.59;100.00
70027;BME280;57506;50.092;15.804;2024-01-30T06:58:28;100935.63;;;-2.68;100.00
70027;BME280;57506;50.092;15.804;2024-01-30T07:00:54;100945.31;;;-2.69;100.00
70027;BME280;57506;50.092;15.804;2024-01-30T07:03:20;100934.47;;;-2.82;100.00
70027;BME280;57506;50.092;15.804;2024-01-30T07:05:45;100941.63;;;-2.85;100.00
70027;BME280;57506;50.092;15.804;2024-01-30T07:08:11;100944.28;;;-2.85;100.00
70027;BME280;57506;50.092;15.804;2024-01-30T07:10:37;100952.50;;;-2.72;100.00
70027;BME280;57506;50.092;15.804;2024-01-30T07:13:02;100938.75;;;-2.79;100.00
70027;BME280;57506;50.092;15.804;2024-01-30T07:15:30;100916.59;;;-2.95;100.00
70027;BME280;57506;50.092;15.804;2024-01-30T07:17:55;100923.97;;;-2.83;100.00
70027;BME280;57506;50.092;15.804;2024-01-30T07:20:21;100955.94;;;-2.50;100.00
70027;BME280;57506;50.092;15.804;2024-01-30T07:22:47;100952.69;;;-2.57;100.00
70027;BME280;57506;50.092;15.804;2024-01-30T07:25:13;100947.47;;;-2.58;100.00
70027;BME280;57506;50.092;15.804;2024-01-30T07:27:38;100942.50;;;-2.64;100.00
70027;BME280;57506;50.092;15.804;2024-01-30T07:30:05;100946.19;;;-2.68;100.00
70027;BME280;57506;50.092;15.804;2024-01-30T07:32:30;100930.53;;;-2.73;100.00
70027;BME280;57506;50.092;15.804;2024-01-30T07:34:57;100922.78;;;-2.76;100.00
70027;BME280;57506;50.092;15.804;2024-01-30T07:37:22;100938.88;;;-2.62;100.00
70027;BME280;57506;50.092;15.804;2024-01-30T07:39:48;100931.88;;;-2.63;100.00
70027;BME280;57506;50.092;15.804;2024-01-30T07:42:14;100952.38;;;-2.49;100.00
70027;BME280;57506;50.092;15.804;2024-01-30T07:44:40;100929.81;;;-2.56;100.00
70027;BME280;57506;50.092;15.804;2024-01-30T07:47:05;100939.53;;;-2.38;100.00
70027;BME280;57506;50.092;15.804;2024-01-30T07:49:34;100947.13;;;-2.30;100.00
70027;BME280;57506;50.092;15.804;2024-01-30T07:52:00;100941.72;;;-2.27;100.00
70027;BME280;57506;50.092;15.804;2024-01-30T07:54:25;100952.06;;;-1.85;100.00
70027;BME280;57506;50.092;15.804;2024-01-30T07:56:51;100952.19;;;-1.69;100.00
70027;BME280;57506;50.092;15.804;2024-01-30T07:59:17;100940.34;;;-1.44;100.00
70027;BME280;57506;50.092;15.804;2024-01-30T08:01:42;100941.16;;;-0.90;100.00
70027;BME280;57506;50.092;15.804;2024-01-30T08:04:08;100934.06;;;-0.72;100.00
70027;BME280;57506;50.092;15.804;2024-01-30T08:06:33;100938.75;;;-0.44;100.00
70027;BME280;57506;50.092;15.804;2024-01-30T08:08:59;100928.91;;;-0.25;100.00
70027;BME280;57506;50.092;15.804;2024-01-30T08:11:24;100940.66;;;0.18;100.00
70027;BME280;57506;50.092;15.804;2024-01-30T08:13:52;100926.97;;;0.26;100.00
70027;BME280;57506;50.092;15.804;2024-01-30T08:16:18;100915.69;;;0.22;100.00
70027;BME280;57506;50.092;15.804;2024-01-30T08:18:43;100898.41;;;0.31;100.00
70027;BME280;57506;50.092;15.804;2024-01-30T08:21:09;100942.44;;;0.65;100.00
70027;BME280;57506;50.092;15.804;2024-01-30T08:23:34;100905.97;;;0.53;100.00
70027;BME280;57506;50.092;15.804;2024-01-30T08:26:00;100924.44;;;0.70;100.00
70027;BME280;57506;50.092;15.804;2024-01-30T08:28:26;100941.81;;;0.76;100.00
70027;BME280;57506;50.092;15.804;2024-01-30T08:30:52;100941.81;;;0.76;100.00
70027;BME280;57506;50.092;15.804;2024-01-30T08:33:17;100938.91;;;0.80;100.00
70027;BME280;57506;50.092;15.804;2024-01-30T08:35:43;100933.63;;;0.94;100.00
70027;BME280;57506;50.092;15.804;2024-01-30T08:38:09;100943.59;;;1.05;100.00
70027;BME280;57506;50.092;15.804;2024-01-30T08:40:34;100930.28;;;1.21;100.00
70027;BME280;57506;50.092;15.804;2024-01-30T08:43:00;100945.84;;;1.27;100.00
70027;BME280;57506;50.092;15.804;2024-01-30T08:45:26;100954.19;;;1.35;100.00
70027;BME280;57506;50.092;15.804;2024-01-30T08:47:52;100959.59;;;1.33;100.00
70027;BME280;57506;50.092;15.804;2024-01-30T08:50:17;100921.66;;;1.31;100.00
70027;BME280;57506;50.092;15.804;2024-01-30T08:52:43;100941.72;;;1.65;100.00
70027;BME280;57506;50.092;15.804;2024-01-30T08:55:09;100967.06;;;1.71;100.00
70027;BME280;57506;50.092;15.804;2024-01-30T08:57:34;100960.53;;;1.77;100.00
70027;BME280;57506;50.092;15.804;2024-01-30T09:00:00;100950.25;;;1.70;100.00
70027;BME280;57506;50.092;15.804;2024-01-30T09:02:29;100948.19;;;1.75;100.00
70027;BME280;57506;50.092;15.804;2024-01-30T09:04:55;100960.88;;;1.85;100.00
70027;BME280;57506;50.092;15.804;2024-01-30T09:07:22;100946.75;;;1.84;100.00
70027;BME280;57506;50.092;15.804;2024-01-30T09:09:48;100944.75;;;2.02;100.00
70027;BME280;57506;50.092;15.804;2024-01-30T09:12:14;100941.91;;;2.05;100.00
70027;BME280;57506;50.092;15.804;2024-01-30T09:14:40;100957.16;;;2.16;100.00
70027;BME280;57506;50.092;15.804;2024-01-30T09:17:06;100942.09;;;2.02;100.00
70027;BME280;57506;50.092;15.804;2024-01-30T09:19:33;100875.56;;;1.75;100.00
70027;BME280;57506;50.092;15.804;2024-01-30T09:21:58;100924.59;;;2.12;100.00
70027;BME280;57506;50.092;15.804;2024-01-30T09:24:25;100905.03;;;1.99;100.00
70027;BME280;57506;50.092;15.804;2024-01-30T09:26:51;100946.81;;;2.25;100.00
70027;BME280;57506;50.092;15.804;2024-01-30T09:29:17;100923.19;;;2.06;100.00
70027;BME280;57506;50.092;15.804;2024-01-30T09:31:44;100939.38;;;2.30;100.00
70027;BME280;57506;50.092;15.804;2024-01-30T09:34:10;100941.94;;;2.32;100.00
70027;BME280;57506;50.092;15.804;2024-01-30T09:36:35;100935.75;;;2.31;100.00
70027;BME280;57506;50.092;15.804;2024-01-30T09:39:01;100958.81;;;2.45;100.00
70027;BME280;57506;50.092;15.804;2024-01-30T09:41:27;100897.69;;;2.17;100.00
70027;BME280;57506;50.092;15.804;2024-01-30T09:43:54;100888.78;;;2.18;100.00
70027;BME280;57506;50.092;15.804;2024-01-30T09:46:21;100918.34;;;2.40;100.00
70027;BME280;57506;50.092;15.804;2024-01-30T09:48:48;100930.84;;;2.52;100.00
70027;BME280;57506;50.092;15.804;2024-01-30T09:51:15;100893.84;;;2.62;100.00
70027;BME280;57506;50.092;15.804;2024-01-30T09:53:42;100909.78;;;2.76;100.00
70027;BME280;57506;50.092;15.804;2024-01-30T09:56:12;100918.63;;;2.89;100.00
70027;BME280;57506;50.092;15.804;2024-01-30T09:58:38;100904.38;;;2.90;100.00
70027;BME280;57506;50.092;15.804;2024-01-30T10:01:05;100924.63;;;3.05;100.00
70027;BME280;57506;50.092;15.804;2024-01-30T10:03:31;100916.00;;;3.02;100.00
70027;BME280;57506;50.092;15.804;2024-01-30T10:06:01;100957.84;;;3.39;100.00
70027;BME280;57506;50.092;15.804;2024-01-30T10:08:26;100948.03;;;3.40;100.00
70027;BME280;57506;50.092;15.804;2024-01-30T10:10:52;100930.75;;;3.33;100.00
70027;BME280;57506;50.092;15.804;2024-01-30T10:13:18;100907.06;;;3.15;100.00
70027;BME280;57506;50.092;15.804;2024-01-30T10:15:44;100908.66;;;3.18;100.00
70027;BME280;57506;50.092;15.804;2024-01-30T10:18:10;100944.81;;;3.47;100.00
70027;BME280;57506;50.092;15.804;2024-01-30T10:20:36;100923.09;;;3.41;100.00
70027;BME280;57506;50.092;15.804;2024-01-30T10:23:02;100916.56;;;3.45;100.00
70027;BME280;57506;50.092;15.804;2024-01-30T10:25:29;100903.03;;;3.35;100.00
70027;BME280;57506;50.092;15.804;2024-01-30T10:27:56;100864.13;;;3.33;100.00
70027;BME280;57506;50.092;15.804;2024-01-30T10:30:22;100915.94;;;3.67;97.94
70027;BME280;57506;50.092;15.804;2024-01-30T10:32:48;100925.72;;;3.79;97.75
70027;BME280;57506;50.092;15.804;2024-01-30T10:35:14;100929.47;;;3.76;97.36
70027;BME280;57506;50.092;15.804;2024-01-30T10:37:43;100903.47;;;3.67;97.58
70027;BME280;57506;50.092;15.804;2024-01-30T10:40:09;100916.47;;;3.72;97.63
70027;BME280;57506;50.092;15.804;2024-01-30T10:42:42;100899.09;;;3.54;99.60
70027;BME280;57506;50.092;15.804;2024-01-30T10:45:09;100872.66;;;3.38;100.00
70027;BME280;57506;50.092;15.804;2024-01-30T10:47:49;100880.75;;;3.62;98.00
70027;BME280;57506;50.092;15.804;2024-01-30T10:50:15;100911.41;;;3.93;95.03
70027;BME280;57506;50.092;15.804;2024-01-30T10:52:41;100906.00;;;3.81;96.57
70027;BME280;57506;50.092;15.804;2024-01-30T10:55:08;100913.91;;;3.83;95.15
70027;BME280;57506;50.092;15.804;2024-01-30T10:57:37;100891.16;;;3.77;94.40
70027;BME280;57506;50.092;15.804;2024-01-30T11:00:11;100888.41;;;3.79;95.29
70027;BME280;57506;50.092;15.804;2024-01-30T11:02:42;100889.28;;;4.16;95.93
70027;BME280;57506;50.092;15.804;2024-01-30T11:05:09;100895.41;;;4.05;93.29
70027;BME280;57506;50.092;15.804;2024-01-30T11:07:35;100887.81;;;3.99;95.32
70027;BME280;57506;50.092;15.804;2024-01-30T11:10:02;100895.72;;;4.01;93.95
70027;BME280;57506;50.092;15.804;2024-01-30T11:12:30;100868.44;;;3.84;93.67
70027;BME280;57506;50.092;15.804;2024-01-30T11:15:06;100891.88;;;4.05;94.32
70027;BME280;57506;50.092;15.804;2024-01-30T11:20:30;100896.25;;;4.06;89.36
70027;BME280;57506;50.092;15.804;2024-01-30T11:23:01;100883.78;;;3.94;88.63
70027;BME280;57506;50.092;15.804;2024-01-30T11:25:31;100890.91;;;4.06;88.82
70027;BME280;57506;50.092;15.804;2024-01-30T11:27:57;100866.72;;;3.96;88.27
70027;BME280;57506;50.092;15.804;2024-01-30T11:30:32;100884.38;;;4.10;88.46
70027;BME280;57506;50.092;15.804;2024-01-30T11:35:51;100876.22;;;4.24;88.86
70027;BME280;57506;50.092;15.804;2024-01-30T11:38:16;100882.41;;;4.25;87.19
70027;BME280;57506;50.092;15.804;2024-01-30T11:40:43;100865.66;;;4.22;88.25
70027;BME280;57506;50.092;15.804;2024-01-30T11:43:09;100863.19;;;4.32;87.74
70027;BME280;57506;50.092;15.804;2024-01-30T11:45:36;100871.06;;;4.34;85.57
70027;BME280;57506;50.092;15.804;2024-01-30T11:48:02;100820.34;;;4.10;85.15
70027;BME280;57506;50.092;15.804;2024-01-30T11:50:29;100830.34;;;4.19;84.34
70027;BME280;57506;50.092;15.804;2024-01-30T11:52:56;100847.38;;;4.29;84.63
70027;BME280;57506;50.092;15.804;2024-01-30T11:55:23;100859.06;;;4.39;83.75
70027;BME280;57506;50.092;15.804;2024-01-30T11:57:49;100819.47;;;4.22;85.17
70027;BME280;57506;50.092;15.804;2024-01-30T12:00:18;100838.19;;;4.33;85.58
70027;BME280;57506;50.092;15.804;2024-01-30T12:02:48;100823.47;;;4.28;85.86
70027;BME280;57506;50.092;15.804;2024-01-30T12:05:14;100833.28;;;4.27;85.48
70027;BME280;57506;50.092;15.804;2024-01-30T12:07:40;100821.41;;;4.20;85.40
70027;BME280;57506;50.092;15.804;2024-01-30T12:10:06;100826.34;;;4.37;85.94
70027;BME280;57506;50.092;15.804;2024-01-30T12:12:33;100832.03;;;4.44;86.74
70027;BME280;57506;50.092;15.804;2024-01-30T12:14:59;100843.63;;;4.55;87.98
70027;BME280;57506;50.092;15.804;2024-01-30T12:17:29;100842.28;;;4.50;87.55
70027;BME280;57506;50.092;15.804;2024-01-30T12:20:05;100796.91;;;4.50;84.85
70027;BME280;57506;50.092;15.804;2024-01-30T12:22:35;100812.78;;;4.51;85.60
70027;BME280;57506;50.092;15.804;2024-01-30T12:25:02;100834.16;;;4.51;85.70
70027;BME280;57506;50.092;15.804;2024-01-30T12:27:29;100818.19;;;4.39;85.66
70027;BME280;57506;50.092;15.804;2024-01-30T12:29:57;100824.75;;;4.35;85.80
70027;BME280;57506;50.092;15.804;2024-01-30T12:32:23;100825.38;;;4.38;86.81
70027;BME280;57506;50.092;15.804;2024-01-30T12:34:49;100814.06;;;4.35;85.90
70027;BME280;57506;50.092;15.804;2024-01-30T12:37:15;100802.41;;;4.36;86.28